Time;durP1;ratioP1;P1;durP2;ratioP2;P2;SDS_P1;SDS_P2;PMS_P1;PMS_P2;Temp;Humidity;BMP_temperature;BMP_pressure;BME280_temperature;BME280_humidity;BME280_pressure;Samples;Min_cycle;Max_cycle;Signal;HPM_P1;HPM_P2
2023/12/25 00:02:26;;;;;;;4.77;1.80;;;;;;;10.85;53.46;98823.09;5033057;28;20195;-85
2023/12/25 00:04:51;;;;;;;11.93;2.97;;;;;;;10.80;53.14;98825.16;5002513;28;20633;-85
2023/12/25 00:07:18;;;;;;;9.07;2.10;;;;;;;10.79;53.21;98839.22;5036400;28;20178;-85
2023/12/25 00:09:44;;;;;;;3.77;1.97;;;;;;;10.86;53.24;98833.53;5019757;28;20652;-85
2023/12/25 00:12:11;;;;;;;7.23;1.80;;;;;;;10.95;52.73;98834.78;5036931;28;20266;-85
2023/12/25 00:14:38;;;;;;;16.17;2.97;;;;;;;10.74;53.41;98836.88;5037581;28;20211;-85
2023/12/25 00:17:05;;;;;;;5.37;1.60;;;;;;;10.63;53.84;98838.41;5037001;28;20237;-85
2023/12/25 00:19:31;;;;;;;5.40;2.20;;;;;;;10.59;53.58;98832.50;5035184;28;20186;-84
2023/12/25 00:21:58;;;;;;;12.50;3.60;;;;;;;10.57;53.83;98833.50;5037460;28;20182;-85
2023/12/25 00:24:24;;;;;;;6.03;2.33;;;;;;;10.65;53.55;98831.28;5036664;28;20186;-85
2023/12/25 00:26:50;;;;;;;5.83;2.13;;;;;;;10.69;53.31;98827.59;5037142;28;20183;-85
2023/12/25 00:29:17;;;;;;;7.27;2.50;;;;;;;10.57;53.31;98839.59;5016716;28;20205;-85
2023/12/25 00:31:42;;;;;;;16.83;3.80;;;;;;;10.57;53.32;98844.00;5001722;28;20304;-85
2023/12/25 00:34:09;;;;;;;13.47;3.23;;;;;;;10.57;53.48;98844.00;5019368;28;20669;-84
2023/12/25 00:36:35;;;;;;;14.30;4.27;;;;;;;10.62;53.34;98841.94;5036330;28;20563;-85
2023/12/25 00:39:02;;;;;;;7.20;2.20;;;;;;;10.62;53.47;98836.72;5019265;28;20183;-85
2023/12/25 00:41:30;;;;;;;5.17;1.50;;;;;;;10.56;53.25;98831.84;5036642;28;20179;-84
2023/12/25 00:43:58;;;;;;;2.87;1.20;;;;;;;10.59;53.37;98835.13;5018722;28;20302;-85
2023/12/25 00:46:24;;;;;;;5.73;1.73;;;;;;;10.55;53.14;98832.75;4998639;28;20241;-84
2023/12/25 00:48:49;;;;;;;7.23;1.63;;;;;;;10.50;53.54;98833.03;5007180;28;20193;-85
2023/12/25 00:51:15;;;;;;;4.63;1.30;;;;;;;10.46;53.72;98826.25;5019071;28;20186;-85
2023/12/25 00:53:40;;;;;;;1.60;0.80;;;;;;;10.40;53.96;98832.69;5018825;28;20185;-85
2023/12/25 00:56:08;;;;;;;4.00;1.40;;;;;;;10.29;54.37;98834.25;5036483;28;20188;-85
2023/12/25 00:58:34;;;;;;;10.30;1.47;;;;;;;10.33;54.46;98839.22;5017035;28;20258;-85
2023/12/25 01:01:00;;;;;;;2.90;1.10;;;;;;;10.34;53.78;98833.06;5036267;28;20262;-85
2023/12/25 01:03:27;;;;;;;5.03;1.57;;;;;;;10.40;53.70;98831.88;5016928;28;20209;-85
2023/12/25 01:05:53;;;;;;;11.33;2.40;;;;;;;10.42;53.47;98825.63;5036414;28;20174;-85
2023/12/25 01:08:20;;;;;;;8.80;2.20;;;;;;;10.49;53.40;98832.19;5018321;28;20240;-85
2023/12/25 01:10:46;;;;;;;11.97;3.10;;;;;;;10.51;53.52;98831.25;5036372;28;20187;-85
2023/12/25 01:13:12;;;;;;;6.30;2.43;;;;;;;10.65;53.09;98829.53;5035923;28;20176;-85
2023/12/25 01:15:37;;;;;;;7.90;2.67;;;;;;;10.64;52.71;98827.00;5018146;28;20230;-85
2023/12/25 01:18:04;;;;;;;8.13;1.53;;;;;;;10.64;52.92;98834.88;5021102;28;20551;-86
2023/12/25 01:20:30;;;;;;;14.37;3.97;;;;;;;10.62;52.81;98827.06;5002266;28;20205;-85
2023/12/25 01:22:57;;;;;;;25.53;6.83;;;;;;;10.48;53.13;98820.00;5029980;28;20198;-85
2023/12/25 01:25:24;;;;;;;12.27;4.87;;;;;;;10.45;53.22;98814.94;5042557;28;20185;-85
2023/12/25 01:27:51;;;;;;;11.70;3.90;;;;;;;10.39;53.54;98815.31;5040621;28;20244;-84
2023/12/25 01:30:16;;;;;;;7.30;2.60;;;;;;;10.39;53.58;98809.22;5035894;28;20187;-85
2023/12/25 01:32:43;;;;;;;5.90;2.10;;;;;;;10.60;52.89;98809.75;5035453;28;20186;-84
2023/12/25 01:35:10;;;;;;;4.00;1.77;;;;;;;10.48;53.42;98809.53;5035023;28;20524;-84
2023/12/25 01:37:35;;;;;;;4.30;1.20;;;;;;;10.48;53.36;98808.69;5035875;28;20179;-85
2023/12/25 01:40:02;;;;;;;4.20;2.07;;;;;;;10.40;53.54;98806.50;5035483;28;20541;-85
2023/12/25 01:42:29;;;;;;;6.00;1.60;;;;;;;10.35;54.16;98808.53;5034865;28;20212;-85
2023/12/25 01:44:55;;;;;;;3.43;1.33;;;;;;;10.36;53.95;98799.75;5036019;28;20186;-85
2023/12/25 01:47:22;;;;;;;4.47;1.47;;;;;;;10.48;53.62;98793.81;5017563;28;20214;-85
2023/12/25 01:49:49;;;;;;;2.03;1.00;;;;;;;10.38;53.92;98797.88;5017795;28;20629;-85
2023/12/25 01:52:17;;;;;;;4.20;1.30;;;;;;;10.23;54.53;98797.91;5035274;28;20635;-85
2023/12/25 01:54:44;;;;;;;3.03;1.03;;;;;;;10.16;55.00;98796.56;5017724;28;20186;-85
2023/12/25 01:57:10;;;;;;;3.37;1.10;;;;;;;10.21;54.81;98794.53;5020849;28;20190;-85
2023/12/25 01:59:38;;;;;;;2.60;1.43;;;;;;;10.27;54.56;98787.16;5035385;28;20178;-85
2023/12/25 02:02:03;;;;;;;12.30;2.63;;;;;;;10.14;54.92;98788.78;5032711;28;20257;-85
2023/12/25 02:04:29;;;;;;;4.50;1.43;;;;;;;10.21;54.75;98781.44;5035151;28;20602;-85
2023/12/25 02:06:56;;;;;;;3.93;1.37;;;;;;;10.21;54.74;98773.59;5034782;28;20255;-84
2023/12/25 02:09:23;;;;;;;3.47;1.50;;;;;;;10.12;54.82;98768.81;5035277;28;20544;-85
2023/12/25 02:11:49;;;;;;;6.67;1.47;;;;;;;10.03;54.88;98759.72;5015371;28;20211;-85
2023/12/25 02:14:17;;;;;;;6.53;1.70;;;;;;;10.20;54.94;98753.56;5020898;28;20185;-85
2023/12/25 02:16:43;;;;;;;2.53;1.63;;;;;;;10.56;53.61;98753.22;5032210;28;20230;-84
2023/12/25 02:19:24;;;;;;;3.20;1.60;;;;;;;10.78;52.37;98756.25;5034833;28;20178;-85
2023/12/25 02:21:51;;;;;;;4.53;1.53;;;;;;;10.89;52.06;98752.06;5016342;28;20190;-85
2023/12/25 02:24:22;;;;;;;3.67;1.20;;;;;;;10.98;51.58;98755.91;5032878;28;20210;-85
2023/12/25 02:26:49;;;;;;;3.50;1.50;;;;;;;11.01;51.45;98750.47;5035212;28;20225;-85
2023/12/25 02:29:15;;;;;;;4.80;1.30;;;;;;;10.85;51.34;98757.56;5015708;28;20217;-85
2023/12/25 02:31:42;;;;;;;4.83;1.63;;;;;;;10.85;51.62;98755.78;5035137;28;20606;-85
2023/12/25 02:34:08;;;;;;;3.83;0.93;;;;;;;10.90;51.36;98760.78;5035334;28;20240;-85
2023/12/25 02:36:35;;;;;;;2.17;1.03;;;;;;;10.82;51.52;98763.03;5034568;28;20611;-85
2023/12/25 02:39:01;;;;;;;5.73;1.20;;;;;;;10.80;51.64;98762.25;5011922;28;20186;-85
2023/12/25 02:41:28;;;;;;;3.43;1.00;;;;;;;10.73;51.90;98758.31;5033405;28;20194;-85
2023/12/25 02:43:53;;;;;;;1.67;0.73;;;;;;;10.53;52.68;98766.50;5034411;28;20301;-85
2023/12/25 02:46:23;;;;;;;3.73;1.00;;;;;;;10.36;52.90;98773.56;5034674;28;20257;-85
2023/12/25 02:48:50;;;;;;;5.10;1.10;;;;;;;10.24;53.20;98779.50;5017273;28;20182;-85
2023/12/25 02:51:15;;;;;;;8.67;1.47;;;;;;;10.21;53.24;98779.69;5017019;28;20695;-85
2023/12/25 02:53:42;;;;;;;5.97;1.60;;;;;;;10.24;53.26;98786.50;5034235;28;20178;-84
2023/12/25 02:56:07;;;;;;;4.80;1.00;;;;;;;10.16;53.68;98784.34;5032630;28;20186;-84
2023/12/25 02:58:34;;;;;;;2.90;1.20;;;;;;;10.09;53.56;98780.31;5033775;28;20183;-85
2023/12/25 03:01:01;;;;;;;5.60;1.23;;;;;;;10.04;53.87;98781.50;5014768;28;20183;-85
2023/12/25 03:03:28;;;;;;;3.03;1.03;;;;;;;9.98;53.99;98774.84;5027596;28;20257;-84
2023/12/25 03:05:53;;;;;;;3.37;1.00;;;;;;;10.03;53.74;98779.84;5033224;28;20174;-84
2023/12/25 03:08:18;;;;;;;4.60;1.23;;;;;;;10.04;53.77;98777.13;5022031;28;20193;-85
2023/12/25 03:10:45;;;;;;;2.90;1.17;;;;;;;10.00;53.91;98774.75;5016619;28;20621;-84
2023/12/25 03:13:11;;;;;;;6.40;1.20;;;;;;;10.00;53.83;98775.59;5033779;28;20182;-85
2023/12/25 03:15:37;;;;;;;2.80;1.17;;;;;;;10.33;52.90;98776.34;5015886;28;20214;-84
2023/12/25 03:18:04;;;;;;;2.10;1.27;;;;;;;10.56;52.27;98769.78;5025596;28;20183;-85
2023/12/25 03:20:30;;;;;;;3.97;1.97;;;;;;;10.65;51.55;98768.41;5016374;28;20248;-85
2023/12/25 03:22:57;;;;;;;3.07;0.93;;;;;;;10.74;51.32;98773.97;5033618;28;20217;-85
2023/12/25 03:25:24;;;;;;;1.57;0.67;;;;;;;10.72;50.88;98777.56;5016111;28;20186;-85
2023/12/25 03:27:51;;;;;;;2.30;1.13;;;;;;;10.79;50.65;98776.31;5016306;28;20178;-85
2023/12/25 03:30:17;;;;;;;7.40;1.10;;;;;;;10.93;49.82;98776.31;5015684;28;20213;-84
2023/12/25 03:32:44;;;;;;;2.50;0.90;;;;;;;10.87;49.79;98776.69;5033675;28;20174;-85
2023/12/25 03:35:10;;;;;;;1.93;0.83;;;;;;;10.87;49.68;98776.69;5010940;28;20197;-85
2023/12/25 03:37:37;;;;;;;3.27;0.83;;;;;;;11.00;49.42;98773.25;5033515;28;20244;-85
2023/12/25 03:40:03;;;;;;;2.17;0.67;;;;;;;10.93;49.38;98768.44;5025303;28;20190;-85
2023/12/25 03:42:29;;;;;;;4.53;1.50;;;;;;;10.69;49.59;98765.50;5032982;28;20256;-85
2023/12/25 03:44:55;;;;;;;3.27;1.27;;;;;;;10.82;49.75;98768.25;5033920;28;20189;-85
2023/12/25 03:47:22;;;;;;;6.70;2.00;;;;;;;10.98;49.06;98764.63;5033591;28;20171;-84
2023/12/25 03:49:48;;;;;;;15.90;4.67;;;;;;;10.99;49.00;98762.84;5033627;28;20179;-85
2023/12/25 03:52:14;;;;;;;4.70;1.33;;;;;;;10.90;48.88;98763.41;5015605;28;20273;-85
2023/12/25 03:54:40;;;;;;;4.50;2.03;;;;;;;10.85;49.20;98771.53;5033445;28;20329;-85
2023/12/25 03:57:08;;;;;;;5.50;1.10;;;;;;;10.99;48.69;98761.06;5033336;28;20185;-85
2023/12/25 03:59:33;;;;;;;4.20;1.10;;;;;;;10.94;49.05;98764.91;5033924;28;20204;-85
2023/12/25 04:01:58;;;;;;;3.47;1.10;;;;;;;10.88;48.70;98767.88;5033195;28;20637;-85
2023/12/25 04:04:24;;;;;;;8.53;2.73;;;;;;;10.84;49.13;98762.00;5033665;28;20234;-84
2023/12/25 04:06:50;;;;;;;5.47;1.83;;;;;;;10.88;48.79;98760.84;5000555;28;20694;-84
2023/12/25 04:09:17;;;;;;;4.57;2.17;;;;;;;10.71;48.92;98757.56;5013700;28;20179;-84
2023/12/25 04:11:44;;;;;;;4.80;1.47;;;;;;;10.50;50.08;98754.44;5029272;28;20269;-85
2023/12/25 04:14:10;;;;;;;3.60;1.70;;;;;;;10.38;50.30;98753.34;5033154;28;20189;-84
2023/12/25 04:16:36;;;;;;;3.90;1.40;;;;;;;10.29;50.59;98748.66;5032640;28;20226;-85
2023/12/25 04:19:02;;;;;;;3.73;1.60;;;;;;;10.51;50.30;98748.22;5032846;28;20284;-85
2023/12/25 04:21:31;;;;;;;1.67;0.73;;;;;;;10.44;50.50;98753.00;5033456;28;20178;-84
2023/12/25 04:23:57;;;;;;;2.93;1.03;;;;;;;10.41;50.25;98750.56;5032984;28;20203;-85
2023/12/25 04:26:23;;;;;;;3.40;1.37;;;;;;;10.61;49.97;98752.03;5031460;28;20251;-84
2023/12/25 04:28:49;;;;;;;5.53;1.23;;;;;;;10.56;49.65;98753.22;5031174;28;20190;-85
2023/12/25 04:31:17;;;;;;;4.20;1.30;;;;;;;10.54;49.85;98755.06;5032798;28;20186;-85
2023/12/25 04:33:43;;;;;;;3.43;1.13;;;;;;;10.60;49.63;98759.97;5015304;28;20614;-85
2023/12/25 04:36:10;;;;;;;2.33;0.90;;;;;;;10.73;49.13;98768.78;5032823;28;20287;-85
2023/12/25 04:38:38;;;;;;;7.47;1.33;;;;;;;10.71;48.79;98768.03;5032840;28;20657;-85
2023/12/25 04:41:05;;;;;;;4.50;1.37;;;;;;;10.47;49.52;98767.69;5032503;28;20269;-85
2023/12/25 04:43:31;;;;;;;2.47;1.20;;;;;;;10.51;49.56;98771.00;5032017;28;20202;-85
2023/12/25 04:45:58;;;;;;;3.53;1.57;;;;;;;10.47;49.82;98779.03;5014812;28;20182;-85
2023/12/25 04:48:25;;;;;;;4.70;1.60;;;;;;;10.27;50.16;98781.94;5015326;28;20182;-85
2023/12/25 04:50:50;;;;;;;3.00;1.53;;;;;;;10.22;50.47;98786.59;5025607;28;20287;-85
2023/12/25 04:53:17;;;;;;;6.57;1.97;;;;;;;10.25;50.14;98775.94;4997067;28;20217;-84
2023/12/25 04:55:43;;;;;;;6.80;1.43;;;;;;;10.19;50.38;98781.53;5017511;28;20649;-84
2023/12/25 04:58:08;;;;;;;3.60;1.27;;;;;;;10.22;50.44;98789.19;5036277;28;20179;-85
2023/12/25 05:00:35;;;;;;;4.27;2.33;;;;;;;10.28;50.35;98788.00;5035619;28;20192;-84
2023/12/25 05:03:03;;;;;;;9.27;3.23;;;;;;;10.23;50.45;98793.53;5036721;28;20202;-85
2023/12/25 05:05:30;;;;;;;5.67;2.50;;;;;;;10.30;50.26;98789.63;5030344;28;20182;-84
2023/12/25 05:07:56;;;;;;;4.10;1.67;;;;;;;10.12;50.69;98793.28;5036134;28;20277;-85
2023/12/25 05:10:22;;;;;;;7.93;1.80;;;;;;;9.88;51.38;98779.75;5034661;28;20178;-84
2023/12/25 05:12:48;;;;;;;2.90;1.17;;;;;;;10.07;51.04;98781.34;5036084;28;20694;-84
2023/12/25 05:15:15;;;;;;;2.27;1.10;;;;;;;10.14;50.83;98780.94;5036041;28;20178;-85
2023/12/25 05:17:42;;;;;;;2.40;0.87;;;;;;;10.16;50.30;98789.56;5018247;28;20562;-85
2023/12/25 05:20:09;;;;;;;3.13;0.73;;;;;;;10.18;50.21;98790.31;5035794;28;20193;-85
2023/12/25 05:22:34;;;;;;;3.80;1.00;;;;;;;10.06;50.84;98795.38;5035586;28;20662;-85
2023/12/25 05:25:01;;;;;;;3.60;1.63;;;;;;;10.06;50.58;98793.59;5018240;28;20201;-85
2023/12/25 05:27:28;;;;;;;3.50;1.37;;;;;;;10.10;50.68;98787.25;5035674;28;20171;-84
2023/12/25 05:29:56;;;;;;;5.03;1.07;;;;;;;10.12;50.75;98798.50;5018092;28;20214;-84
2023/12/25 05:32:21;;;;;;;3.17;1.07;;;;;;;10.34;50.08;98796.38;5033794;28;20655;-85
2023/12/25 05:34:48;;;;;;;1.83;1.07;;;;;;;10.22;50.51;98791.81;5035675;28;20218;-85
2023/12/25 05:37:15;;;;;;;5.20;1.70;;;;;;;10.11;50.48;98798.56;5017885;28;20186;-85
2023/12/25 05:39:41;;;;;;;6.27;1.27;;;;;;;9.94;51.10;98785.56;5018044;28;20178;-85
2023/12/25 05:42:07;;;;;;;3.13;1.40;;;;;;;9.89;51.50;98799.75;5035248;28;20189;-84
2023/12/25 05:44:33;;;;;;;2.20;1.37;;;;;;;9.93;51.04;98808.31;5035484;28;20527;-84
2023/12/25 05:46:59;;;;;;;3.47;1.60;;;;;;;9.93;51.20;98795.22;5031705;28;20657;-85
2023/12/25 05:49:24;;;;;;;3.63;1.23;;;;;;;9.82;51.23;98794.97;5016045;28;20179;-85
2023/12/25 05:51:51;;;;;;;4.63;1.30;;;;;;;9.69;51.55;98786.94;5035157;28;20317;-84
2023/12/25 05:54:17;;;;;;;3.43;1.83;;;;;;;9.89;51.33;98788.44;5035293;28;20174;-85
2023/12/25 05:56:42;;;;;;;5.37;1.73;;;;;;;9.82;51.56;98792.34;5034427;28;20284;-84
2023/12/25 05:59:08;;;;;;;6.23;1.63;;;;;;;9.82;51.67;98805.44;5034871;28;20289;-84
2023/12/25 06:01:35;;;;;;;3.53;1.20;;;;;;;9.69;52.09;98791.31;5017539;28;20183;-84
2023/12/25 06:04:02;;;;;;;9.80;2.23;;;;;;;9.51;52.41;98808.00;5031753;28;20293;-84
2023/12/25 06:06:28;;;;;;;3.23;1.67;;;;;;;9.58;52.45;98801.50;5032300;28;20224;-84
2023/12/25 06:08:55;;;;;;;3.70;1.33;;;;;;;9.68;52.07;98806.16;5017521;28;20183;-84
2023/12/25 06:11:22;;;;;;;4.73;1.20;;;;;;;9.70;52.30;98806.06;5017283;28;20281;-84
2023/12/25 06:13:48;;;;;;;3.93;1.77;;;;;;;9.75;52.40;98815.38;5034787;28;20186;-84
2023/12/25 06:16:15;;;;;;;2.23;1.07;;;;;;;9.75;52.25;98810.13;5034676;28;20190;-84
2023/12/25 06:18:40;;;;;;;2.53;1.40;;;;;;;9.74;52.42;98813.69;5034888;28;20178;-84
2023/12/25 06:21:08;;;;;;;2.97;1.60;;;;;;;9.96;51.91;98813.34;5033247;28;20625;-84
2023/12/25 06:23:35;;;;;;;3.53;1.23;;;;;;;10.02;51.68;98813.03;5034500;28;20688;-84
2023/12/25 06:26:02;;;;;;;3.77;1.50;;;;;;;9.97;52.06;98817.66;5035256;28;20171;-84
2023/12/25 06:28:29;;;;;;;2.17;1.00;;;;;;;9.98;52.12;98814.13;5034475;28;20186;-85
2023/12/25 06:30:56;;;;;;;3.93;1.87;;;;;;;10.11;51.94;98811.66;5034648;28;20182;-84
2023/12/25 06:33:23;;;;;;;8.80;2.67;;;;;;;10.14;51.63;98817.59;5025053;28;20245;-84
2023/12/25 06:35:48;;;;;;;9.47;3.37;;;;;;;10.63;52.08;98820.91;4997408;28;20186;-84
2023/12/25 06:38:15;;;;;;;6.37;1.83;;;;;;;11.99;49.19;98799.47;5030575;28;20269;-84
2023/12/25 06:40:40;;;;;;;8.47;3.13;;;;;;;13.84;45.25;98782.44;5032785;28;20190;-85
2023/12/25 06:43:09;;;;;;;13.70;5.13;;;;;;;15.52;40.76;98771.56;5034611;28;20202;-85
2023/12/25 06:45:34;;;;;;;9.10;3.13;;;;;;;16.97;38.12;98763.13;5033131;28;20184;-85
2023/12/25 06:48:00;;;;;;;4.57;2.20;;;;;;;17.95;35.66;98755.50;5015078;28;20186;-86
2023/12/25 06:50:27;;;;;;;5.60;2.40;;;;;;;18.01;34.64;98757.59;5023096;28;20272;-85
2023/12/25 06:52:55;;;;;;;5.53;2.20;;;;;;;17.62;35.49;98752.19;5026720;28;20186;-86
2023/12/25 06:55:21;;;;;;;6.43;2.73;;;;;;;17.43;35.77;98753.88;5029768;28;20284;-86
2023/12/25 06:57:48;;;;;;;4.17;2.33;;;;;;;17.13;35.94;98760.00;5034073;28;20241;-86
2023/12/25 07:00:14;;;;;;;23.77;6.37;;;;;;;17.02;36.48;98774.16;5033803;28;20185;-86
2023/12/25 07:02:40;;;;;;;8.00;2.47;;;;;;;16.87;36.97;98771.97;5032318;28;20300;-86
2023/12/25 07:05:06;;;;;;;5.93;2.20;;;;;;;16.70;36.89;98783.94;5032223;28;20191;-85
2023/12/25 07:07:33;;;;;;;5.40;2.10;;;;;;;16.86;36.89;98792.28;4999746;28;20186;-85
2023/12/25 07:09:58;;;;;;;11.73;3.03;;;;;;;17.01;36.60;98787.50;5014151;28;20189;-86
2023/12/25 07:12:24;;;;;;;8.53;2.90;;;;;;;17.06;36.47;98796.75;5020516;28;20184;-85
2023/12/25 07:14:50;;;;;;;6.50;2.50;;;;;;;17.05;36.31;98810.13;5033815;28;20675;-86
2023/12/25 07:17:17;;;;;;;7.30;3.20;;;;;;;16.85;36.75;98810.97;5032348;28;20243;-86
2023/12/25 07:19:44;;;;;;;9.23;3.97;;;;;;;16.56;37.03;98814.19;5015703;28;20216;-85
2023/12/25 07:22:12;;;;;;;14.40;4.00;;;;;;;16.30;37.53;98819.91;5033635;28;20186;-85
2023/12/25 07:24:39;;;;;;;9.20;3.37;;;;;;;16.01;37.82;98827.50;5010905;28;20280;-85
2023/12/25 07:27:05;;;;;;;8.50;3.77;;;;;;;15.79;38.91;98838.97;5027770;28;20189;-85
2023/12/25 07:29:31;;;;;;;6.20;2.53;;;;;;;15.65;39.11;98838.34;5028497;28;20180;-85
2023/12/25 07:31:57;;;;;;;7.80;2.40;;;;;;;15.48;39.78;98822.97;5031130;28;20242;-85
2023/12/25 07:34:23;;;;;;;7.43;2.37;;;;;;;15.28;39.90;98827.94;5031315;28;20245;-85
2023/12/25 07:36:49;;;;;;;8.93;2.93;;;;;;;15.09;40.42;98819.75;5032126;28;20200;-85
2023/12/25 07:39:14;;;;;;;10.23;3.20;;;;;;;15.01;40.75;98827.41;5013255;28;20853;-84
2023/12/25 07:41:42;;;;;;;10.80;2.00;;;;;;;15.03;40.93;98832.56;5032496;28;20278;-85
2023/12/25 07:44:08;;;;;;;4.43;1.67;;;;;;;15.10;40.77;98834.63;5031423;28;20703;-85
2023/12/25 07:46:33;;;;;;;2.13;1.07;;;;;;;15.08;41.36;98833.06;5031277;28;20198;-85
2023/12/25 07:48:59;;;;;;;2.83;1.50;;;;;;;15.08;41.46;98844.47;5032198;28;20186;-85
2023/12/25 07:51:26;;;;;;;5.20;1.77;;;;;;;15.11;42.07;98841.59;5032257;28;20214;-85
2023/12/25 07:53:53;;;;;;;4.50;1.23;;;;;;;15.18;42.32;98856.00;5028079;28;20267;-85
2023/12/25 07:56:18;;;;;;;3.60;1.30;;;;;;;15.36;41.59;98856.41;5032042;28;20245;-85
2023/12/25 07:58:44;;;;;;;4.13;1.50;;;;;;;15.61;41.01;98855.41;5031727;28;20180;-86
2023/12/25 08:01:10;;;;;;;3.40;1.73;;;;;;;15.69;42.85;98859.13;5032238;28;20190;-85
2023/12/25 08:03:42;;;;;;;3.70;1.30;;;;;;;15.89;42.94;98871.63;5014068;28;20206;-86
2023/12/25 08:06:08;;;;;;;3.47;1.13;;;;;;;16.07;42.97;98874.63;5028192;28;20663;-86
2023/12/25 08:08:34;;;;;;;4.50;1.43;;;;;;;16.27;42.52;98868.56;5031649;28;20256;-86
2023/12/25 08:10:59;;;;;;;4.13;1.57;;;;;;;16.39;42.36;98872.06;5001415;28;20188;-86
2023/12/25 08:13:24;;;;;;;2.63;1.20;;;;;;;16.64;43.34;98866.47;5031040;28;20256;-86
2023/12/25 08:15:51;;;;;;;1.87;0.70;;;;;;;16.88;43.46;98858.34;5032079;28;20597;-86
2023/12/25 08:18:16;;;;;;;1.27;0.77;;;;;;;17.10;42.48;98853.81;5015821;28;20269;-86
2023/12/25 08:20:42;;;;;;;2.53;0.70;;;;;;;17.22;40.07;98854.56;5000360;28;20831;-86
2023/12/25 08:23:07;;;;;;;1.50;0.50;;;;;;;17.39;40.75;98854.00;5020809;28;20695;-86
2023/12/25 08:25:32;;;;;;;1.80;0.70;;;;;;;17.55;39.63;98850.91;5004001;28;20717;-86
2023/12/25 08:27:58;;;;;;;1.67;0.67;;;;;;;17.67;39.87;98848.03;5019597;28;20261;-86
2023/12/25 08:30:25;;;;;;;2.97;1.33;;;;;;;17.86;39.47;98843.81;5020118;28;20625;-86
2023/12/25 08:32:56;;;;;;;21.97;8.53;;;;;;;18.02;40.23;98844.16;5020800;28;20293;-86
2023/12/25 08:35:21;;;;;;;41.37;15.93;;;;;;;17.94;40.92;98850.13;5021547;28;20194;-86
2023/12/25 08:37:48;;;;;;;45.57;17.03;;;;;;;17.90;40.78;98840.75;5021089;28;20190;-86
2023/12/25 08:40:13;;;;;;;35.90;16.03;;;;;;;17.93;39.91;98842.28;4997254;28;20659;-86
2023/12/25 08:42:38;;;;;;;33.97;13.37;;;;;;;17.82;40.05;98845.88;5004751;28;20208;-86
2023/12/25 08:45:06;;;;;;;23.17;11.70;;;;;;;17.81;40.54;98852.16;5001097;28;20195;-87
2023/12/25 08:47:31;;;;;;;19.77;9.13;;;;;;;18.00;40.49;98862.00;5004933;28;20187;-87
2023/12/25 08:49:58;;;;;;;13.13;4.90;;;;;;;18.24;40.23;98860.69;5015847;28;20284;-87
2023/12/25 08:52:24;;;;;;;6.87;2.47;;;;;;;18.29;39.80;98858.47;5005436;28;20240;-86
2023/12/25 08:54:51;;;;;;;7.17;2.43;;;;;;;18.32;40.01;98846.75;5005135;28;20664;-87
2023/12/25 08:57:16;;;;;;;6.63;2.23;;;;;;;18.54;40.18;98851.00;5006205;28;20190;-87
2023/12/25 08:59:43;;;;;;;6.47;2.30;;;;;;;18.71;39.87;98847.69;5019893;28;20189;-87
2023/12/25 09:02:10;;;;;;;5.63;2.10;;;;;;;18.78;39.61;98843.50;5009736;28;20648;-87
2023/12/25 09:04:35;;;;;;;4.50;1.63;;;;;;;18.87;40.07;98832.03;4990103;28;20187;-87
2023/12/25 09:07:01;;;;;;;6.07;1.60;;;;;;;19.10;39.52;98833.44;4998566;28;20190;-87
2023/12/25 09:09:28;;;;;;;5.57;2.07;;;;;;;19.24;38.57;98838.28;4990188;28;20187;-87
2023/12/25 09:11:54;;;;;;;5.37;2.60;;;;;;;19.38;38.20;98826.41;5013388;28;20211;-87
2023/12/25 09:14:20;;;;;;;3.43;1.30;;;;;;;19.49;37.42;98813.81;5020283;28;20187;-87
2023/12/25 09:16:46;;;;;;;2.97;1.10;;;;;;;19.73;37.53;98815.13;5005754;28;20204;-87
2023/12/25 09:19:11;;;;;;;4.10;1.30;;;;;;;19.96;36.95;98797.81;5016082;28;20225;-87
2023/12/25 09:21:39;;;;;;;5.90;1.73;;;;;;;20.16;35.98;98805.53;5035204;28;20372;-88
2023/12/25 09:24:05;;;;;;;7.60;0.97;;;;;;;20.18;34.53;98800.03;5034222;28;20288;-88
2023/12/25 09:26:30;;;;;;;3.60;1.70;;;;;;;20.41;34.88;98805.84;5035298;28;20563;-87
2023/12/25 09:28:56;;;;;;;1.80;0.67;;;;;;;20.39;34.00;98802.50;5034956;28;20186;-87
2023/12/25 09:31:21;;;;;;;2.30;0.80;;;;;;;20.70;33.87;98801.97;5029736;28;20182;-88
2023/12/25 09:33:48;;;;;;;1.93;0.90;;;;;;;20.93;33.94;98791.69;5034743;28;20192;-87
2023/12/25 09:36:15;;;;;;;1.63;0.70;;;;;;;21.17;33.18;98799.88;5034793;28;20216;-88
2023/12/25 09:38:40;;;;;;;2.83;0.90;;;;;;;21.22;31.96;98791.44;5016540;28;20592;-88
2023/12/25 09:41:10;;;;;;;4.20;1.10;;;;;;;20.98;32.45;98794.72;5034535;28;20183;-88
2023/12/25 09:43:41;;;;;;;5.97;1.20;;;;;;;21.27;32.89;98794.47;5034817;28;20206;-88
2023/12/25 09:46:10;;;;;;;6.37;1.17;;;;;;;21.26;31.69;98793.63;5034834;28;20182;-88
2023/12/25 09:48:38;;;;;;;5.17;1.37;;;;;;;21.46;31.34;98788.94;5036857;28;20193;-89
2023/12/25 09:51:05;;;;;;;3.07;1.07;;;;;;;21.58;31.06;98782.34;5034476;28;20182;-89
2023/12/25 09:53:31;;;;;;;5.07;1.57;;;;;;;21.71;30.31;98781.91;5032378;28;20186;-89
2023/12/25 09:55:57;;;;;;;4.30;1.10;;;;;;;21.95;30.69;98779.38;5016371;28;20189;-89
2023/12/25 09:58:23;;;;;;;9.17;2.17;;;;;;;21.93;30.68;98782.19;5015845;28;20622;-89
2023/12/25 10:00:49;;;;;;;3.27;1.20;;;;;;;21.99;31.16;98776.22;5034646;28;20182;-89
2023/12/25 10:03:17;;;;;;;4.53;1.20;;;;;;;22.08;31.06;98774.41;5033954;28;20214;-89
2023/12/25 10:05:43;;;;;;;3.43;1.30;;;;;;;22.19;30.98;98771.47;5040747;28;20188;-89
2023/12/25 10:08:10;;;;;;;6.23;1.20;;;;;;;22.49;31.39;98765.50;5039366;28;20650;-88
2023/12/25 10:10:39;;;;;;;3.13;1.10;;;;;;;22.70;30.71;98758.88;5033164;28;20193;-88
2023/12/25 10:13:04;;;;;;;6.63;1.20;;;;;;;22.85;29.87;98752.69;5031428;28;20645;-88
2023/12/25 10:15:31;;;;;;;3.63;1.60;;;;;;;22.84;29.96;98752.88;5022890;28;20171;-89
2023/12/25 10:18:05;;;;;;;7.43;2.00;;;;;;;22.98;30.34;98753.03;5002950;28;20534;-88
2023/12/25 10:20:30;;;;;;;8.13;2.63;;;;;;;22.82;30.15;98746.88;5008778;28;20213;-88
2023/12/25 10:22:57;;;;;;;5.97;1.40;;;;;;;22.87;30.53;98741.84;5032684;28;20226;-90
2023/12/25 10:25:30;;;;;;;8.03;1.47;;;;;;;22.99;30.59;98733.31;5034056;28;20197;-89
2023/12/25 10:28:10;;;;;;;4.53;1.50;;;;;;;23.05;29.90;98737.16;5032602;28;20240;-90
2023/12/25 10:30:36;;;;;;;3.97;1.40;;;;;;;23.05;30.07;98731.81;5033169;28;20182;-89
2023/12/25 10:33:10;;;;;;;4.40;1.13;;;;;;;23.23;29.15;98719.06;5034364;28;20184;-90
2023/12/25 10:35:37;;;;;;;5.87;1.40;;;;;;;23.48;29.21;98717.22;5033141;28;20260;-89
2023/12/25 10:38:06;;;;;;;4.97;1.97;;;;;;;23.54;28.80;98717.34;5016969;28;20543;-89
2023/12/25 10:40:36;;;;;;;9.13;2.23;;;;;;;23.60;29.05;98711.31;5015655;28;20845;-89
2023/12/25 10:43:05;;;;;;;2.53;1.10;;;;;;;23.60;28.29;98705.97;5028680;28;20205;-90
2023/12/25 10:45:32;;;;;;;2.83;1.13;;;;;;;23.72;28.38;98709.91;5025131;28;20186;-90
2023/12/25 10:48:02;;;;;;;4.73;1.47;;;;;;;23.83;27.77;98706.84;5023080;28;20194;-90
2023/12/25 10:50:36;;;;;;;2.70;0.80;;;;;;;23.74;27.98;98702.53;5013131;28;20639;-89
2023/12/25 10:53:09;;;;;;;3.13;1.03;;;;;;;24.01;27.06;98698.56;5005460;28;20270;-90
2023/12/25 10:55:42;;;;;;;6.30;2.50;;;;;;;24.01;27.82;98697.72;5033120;28;20178;-89
2023/12/25 10:58:16;;;;;;;2.93;1.03;;;;;;;24.17;27.23;98692.31;5033943;28;20186;-89
2023/12/25 11:00:54;;;;;;;4.13;1.23;;;;;;;24.35;27.43;98695.53;5032167;28;20201;-90
2023/12/25 11:03:20;;;;;;;4.83;1.33;;;;;;;24.43;27.19;98695.47;5032004;28;20230;-89
2023/12/25 11:05:47;;;;;;;3.53;1.00;;;;;;;24.56;27.41;98686.81;5022691;28;20269;-89
2023/12/25 11:08:20;;;;;;;4.37;0.90;;;;;;;24.65;26.64;98693.81;5014524;28;20193;-91
2023/12/25 11:10:46;;;;;;;1.70;0.80;;;;;;;24.64;26.45;98687.59;5032636;28;20183;-90
2023/12/25 11:13:14;;;;;;;3.50;1.13;;;;;;;24.74;26.75;98672.09;5006279;28;20182;-88
2023/12/25 11:15:40;;;;;;;3.63;1.00;;;;;;;24.94;26.57;98673.28;5020285;28;20191;-90
2023/12/25 11:18:09;;;;;;;5.20;1.57;;;;;;;24.99;26.13;98681.63;5018578;28;20227;-90
2023/12/25 11:20:35;;;;;;;5.97;1.13;;;;;;;25.13;26.07;98679.13;5025247;28;20197;-89
2023/12/25 11:23:05;;;;;;;4.27;1.17;;;;;;;25.30;25.78;98685.97;5027283;28;20210;-89
2023/12/25 11:25:33;;;;;;;5.37;1.73;;;;;;;25.42;25.55;98679.97;5030854;28;20178;-90
2023/12/25 11:28:04;;;;;;;5.17;1.67;;;;;;;25.43;25.64;98683.47;5033725;28;20205;-90
2023/12/25 11:30:34;;;;;;;9.00;2.70;;;;;;;25.55;26.20;98671.31;5033227;28;20251;-91
2023/12/25 11:33:01;;;;;;;3.13;1.10;;;;;;;25.55;26.10;98671.31;5033820;28;20178;-89